createdAt,value
2023-11-30T00:00:43.260Z,13.45
2023-11-30T00:03:12.810Z,14.95
2023-11-30T00:05:41.019Z,15.65
2023-11-30T00:08:09.100Z,19.27
2023-11-30T00:10:37.215Z,20.23
2023-11-30T00:13:06.236Z,19.10
2023-11-30T00:15:34.493Z,19.17
2023-11-30T00:18:02.917Z,16.55
2023-11-30T00:20:32.490Z,16.50
2023-11-30T00:23:00.559Z,17.80
2023-11-30T00:25:29.796Z,18.70
2023-11-30T00:27:57.954Z,16.23
2023-11-30T00:30:26.129Z,17.17
2023-11-30T00:32:54.419Z,17.33
2023-11-30T00:35:22.905Z,16.83
2023-11-30T00:37:52.314Z,16.58
2023-11-30T00:40:20.510Z,18.15
2023-11-30T00:42:48.877Z,18.00
2023-11-30T00:45:17.332Z,20.65
2023-11-30T00:47:45.531Z,17.98
2023-11-30T00:50:13.731Z,17.88
2023-11-30T00:52:41.884Z,19.60
2023-11-30T00:55:11.576Z,20.10
2023-11-30T00:57:39.740Z,18.42
2023-11-30T01:00:10.134Z,18.85
2023-11-30T01:02:41.238Z,19.15
2023-11-30T01:05:10.593Z,20.38
2023-11-30T01:07:39.066Z,20.05
2023-11-30T01:10:08.379Z,21.13
2023-11-30T01:12:37.948Z,20.48
2023-11-30T01:15:09.371Z,21.42
2023-11-30T01:17:37.564Z,20.17
2023-11-30T01:20:06.625Z,22.17
2023-11-30T01:22:34.817Z,21.92
2023-11-30T01:25:03.124Z,23.02
2023-11-30T01:27:31.299Z,21.13
2023-11-30T01:30:00.882Z,21.58
2023-11-30T01:32:29.121Z,22.10
2023-11-30T01:34:57.336Z,20.15
2023-11-30T01:37:25.447Z,20.30
2023-11-30T01:39:53.537Z,19.85
2023-11-30T01:42:21.865Z,19.90
2023-11-30T01:44:50.286Z,21.27
2023-11-30T01:47:19.894Z,22.25
2023-11-30T01:49:48.057Z,20.10
2023-11-30T01:52:16.174Z,21.95
2023-11-30T01:54:44.340Z,21.58
2023-11-30T01:57:13.664Z,19.15
2023-11-30T01:59:42.185Z,20.50
2023-11-30T02:02:10.591Z,20.60
2023-11-30T02:04:43.867Z,18.52
2023-11-30T02:07:12.077Z,19.40
2023-11-30T02:09:40.298Z,18.45
2023-11-30T02:12:09.094Z,19.85
2023-11-30T02:14:37.485Z,16.60
2023-11-30T02:17:06.001Z,18.48
2023-11-30T02:19:34.183Z,17.42
2023-11-30T02:22:03.676Z,17.05
2023-11-30T02:24:31.826Z,15.90
2023-11-30T02:26:59.969Z,18.40
2023-11-30T02:29:28.009Z,16.05
2023-11-30T02:31:56.180Z,16.38
2023-11-30T02:34:24.308Z,16.55
2023-11-30T02:36:52.856Z,15.45
2023-11-30T02:39:22.448Z,16.02
2023-11-30T02:41:51.571Z,16.67
2023-11-30T02:44:19.703Z,16.65
2023-11-30T02:46:47.814Z,17.20
2023-11-30T02:49:17.827Z,17.90
2023-11-30T02:51:45.943Z,17.67
2023-11-30T02:54:14.383Z,17.90
2023-11-30T02:56:43.901Z,18.10
2023-11-30T02:59:11.995Z,16.90
2023-11-30T03:01:46.601Z,17.98
2023-11-30T03:04:15.175Z,16.73
2023-11-30T03:06:43.890Z,16.30
2023-11-30T03:09:13.285Z,15.77
2023-11-30T03:11:41.583Z,16.60
2023-11-30T03:14:11.160Z,17.00
2023-11-30T03:16:40.525Z,15.65
2023-11-30T03:19:16.425Z,17.58
2023-11-30T03:21:45.689Z,18.67
2023-11-30T03:24:13.962Z,17.95
2023-11-30T03:26:42.188Z,18.88
2023-11-30T03:29:11.848Z,18.85
2023-11-30T03:31:41.015Z,16.98
2023-11-30T03:34:09.616Z,17.45
2023-11-30T03:36:37.864Z,19.70
2023-11-30T03:39:06.148Z,19.33
2023-11-30T03:41:34.515Z,20.10
2023-11-30T03:44:02.800Z,20.23
2023-11-30T03:46:32.434Z,18.38
2023-11-30T03:49:02.009Z,18.23
2023-11-30T03:51:30.247Z,18.48
2023-11-30T03:53:58.437Z,19.77
2023-11-30T03:56:26.684Z,20.10
2023-11-30T03:58:55.724Z,17.80
2023-11-30T04:01:25.935Z,18.58
2023-11-30T04:03:55.512Z,17.95
2023-11-30T04:06:24.895Z,19.17
2023-11-30T04:08:53.276Z,19.40
2023-11-30T04:11:21.747Z,21.50
2023-11-30T04:13:50.046Z,21.85
2023-11-30T04:16:18.794Z,19.33
2023-11-30T04:18:47.110Z,23.65
2023-11-30T04:21:17.234Z,24.52
2023-11-30T04:23:46.372Z,27.80
2023-11-30T04:26:14.609Z,27.58
2023-11-30T04:28:42.752Z,24.70
2023-11-30T04:31:11.215Z,24.35
2023-11-30T04:33:39.458Z,27.20
2023-11-30T04:36:08.507Z,26.42
2023-11-30T04:38:38.330Z,24.35
2023-11-30T04:41:06.899Z,30.63
2023-11-30T04:43:38.342Z,30.58
2023-11-30T04:46:07.057Z,32.47
2023-11-30T04:48:35.358Z,24.08
2023-11-30T04:51:03.866Z,26.80
2023-11-30T04:53:32.082Z,27.65
2023-11-30T04:56:01.599Z,25.42
2023-11-30T04:58:29.778Z,29.67
2023-11-30T05:00:58.234Z,27.85
2023-11-30T05:03:26.813Z,30.65
2023-11-30T05:05:55.186Z,29.05
2023-11-30T05:08:23.362Z,29.00
2023-11-30T05:10:51.421Z,32.55
2023-11-30T05:13:21.009Z,30.27
2023-11-30T05:15:49.131Z,30.90
2023-11-30T05:18:17.236Z,25.48
2023-11-30T05:20:45.469Z,25.15
2023-11-30T05:23:13.743Z,25.77
2023-11-30T05:25:41.799Z,27.85
2023-11-30T05:28:10.007Z,25.33
2023-11-30T05:30:39.433Z,25.23
2023-11-30T05:33:08.404Z,27.77
2023-11-30T05:35:37.391Z,26.33
2023-11-30T05:38:05.523Z,27.55
2023-11-30T05:40:33.648Z,27.70
2023-11-30T05:43:01.854Z,28.83
2023-11-30T05:45:30.032Z,28.75
2023-11-30T05:47:59.724Z,31.48
2023-11-30T05:50:27.988Z,30.58
2023-11-30T05:52:56.010Z,26.80
2023-11-30T05:55:24.188Z,28.70
2023-11-30T05:57:52.340Z,26.70
2023-11-30T06:00:21.667Z,27.67
2023-11-30T06:02:49.932Z,28.52
2023-11-30T06:05:19.548Z,27.90
2023-11-30T06:07:47.717Z,27.45
2023-11-30T06:10:16.415Z,26.23
2023-11-30T06:12:44.700Z,26.15
2023-11-30T06:15:13.669Z,27.92
2023-11-30T06:17:41.812Z,26.95
2023-11-30T06:20:12.743Z,29.20
2023-11-30T06:22:42.520Z,31.30
2023-11-30T06:25:11.164Z,30.38
2023-11-30T06:27:39.325Z,29.20
2023-11-30T06:30:09.533Z,28.58
2023-11-30T06:32:37.903Z,28.70
2023-11-30T06:35:06.932Z,27.45
2023-11-30T06:37:34.997Z,29.58
2023-11-30T06:40:05.480Z,28.08
2023-11-30T06:42:33.634Z,29.17
2023-11-30T06:45:01.802Z,27.45
2023-11-30T06:47:30.032Z,28.63
2023-11-30T06:49:58.111Z,30.20
2023-11-30T06:52:26.355Z,27.80
2023-11-30T06:54:54.618Z,27.17
2023-11-30T06:57:25.080Z,27.65
2023-11-30T06:59:53.440Z,28.77
2023-11-30T07:02:23.045Z,27.60
2023-11-30T07:04:51.383Z,29.33
2023-11-30T07:07:28.139Z,30.33
2023-11-30T07:10:02.348Z,32.05
2023-11-30T07:12:31.881Z,29.48
2023-11-30T07:14:59.988Z,31.15
2023-11-30T07:17:28.158Z,31.55
2023-11-30T07:19:56.274Z,32.20
2023-11-30T07:22:26.204Z,29.27
2023-11-30T07:24:54.754Z,33.30
2023-11-30T07:27:23.016Z,31.85
2023-11-30T07:29:52.666Z,29.42
2023-11-30T07:32:20.857Z,28.33
2023-11-30T07:34:49.166Z,26.95
2023-11-30T07:37:19.194Z,27.30
2023-11-30T07:39:47.809Z,28.15
2023-11-30T07:42:26.099Z,30.00
2023-11-30T07:45:03.628Z,30.55
2023-11-30T07:47:34.138Z,32.22
2023-11-30T07:50:02.529Z,34.80
2023-11-30T07:52:32.887Z,36.15
2023-11-30T07:55:01.288Z,39.50
2023-11-30T07:57:30.682Z,39.45
2023-11-30T07:59:58.897Z,39.10
2023-11-30T08:02:29.059Z,37.55
2023-11-30T08:04:57.444Z,37.85
2023-11-30T08:07:25.595Z,36.67
2023-11-30T08:09:54.449Z,35.67
2023-11-30T08:12:22.967Z,35.83
2023-11-30T08:14:51.129Z,32.95
2023-11-30T08:17:19.408Z,32.50
2023-11-30T08:19:50.054Z,32.25
2023-11-30T08:22:18.225Z,32.20
2023-11-30T08:24:46.372Z,30.40
2023-11-30T08:27:14.779Z,33.88
2023-11-30T08:29:43.877Z,32.80
2023-11-30T08:32:12.392Z,30.48
2023-11-30T08:34:40.510Z,30.83
2023-11-30T08:37:09.976Z,31.90
2023-11-30T08:39:38.128Z,30.52
2023-11-30T08:42:06.666Z,29.73
2023-11-30T08:44:36.585Z,29.83
2023-11-30T08:47:04.784Z,27.83
2023-11-30T08:49:33.271Z,26.85
2023-11-30T08:52:01.611Z,28.60
2023-11-30T08:54:31.077Z,25.88
2023-11-30T08:56:59.457Z,29.33
2023-11-30T08:59:27.586Z,30.60
2023-11-30T09:01:55.952Z,32.70
2023-11-30T09:04:24.218Z,32.92
2023-11-30T09:06:52.432Z,32.38
2023-11-30T09:09:20.594Z,32.08
2023-11-30T09:11:50.136Z,32.55
2023-11-30T09:14:18.298Z,32.58
2023-11-30T09:16:46.538Z,31.77
2023-11-30T09:19:14.870Z,32.28
2023-11-30T09:21:43.228Z,33.00
2023-11-30T09:24:12.224Z,32.30
2023-11-30T09:26:42.500Z,28.58
2023-11-30T09:29:13.276Z,31.38
2023-11-30T09:31:43.092Z,28.13
2023-11-30T09:34:13.036Z,26.10
2023-11-30T09:36:41.430Z,25.70
2023-11-30T09:39:10.269Z,24.65
2023-11-30T09:41:39.666Z,24.48
2023-11-30T09:44:08.430Z,24.15
2023-11-30T09:46:38.102Z,23.77
2023-11-30T09:49:10.077Z,23.75
2023-11-30T09:51:42.490Z,23.85
2023-11-30T09:54:11.806Z,26.13
2023-11-30T09:56:39.965Z,27.27
2023-11-30T09:59:09.003Z,26.30
2023-11-30T10:01:40.698Z,24.95
2023-11-30T10:04:16.231Z,25.75
2023-11-30T10:06:45.102Z,24.90
2023-11-30T10:09:14.410Z,23.50
2023-11-30T10:11:43.294Z,25.33
2023-11-30T10:14:11.770Z,26.15
2023-11-30T10:16:42.232Z,25.95
2023-11-30T10:19:11.854Z,26.30
2023-11-30T10:21:40.273Z,26.58
2023-11-30T10:24:09.260Z,27.67
2023-11-30T10:26:39.248Z,29.38
2023-11-30T10:29:08.515Z,28.20
2023-11-30T10:31:37.897Z,28.63
2023-11-30T10:34:13.688Z,27.13
2023-11-30T10:36:44.658Z,30.23
2023-11-30T10:39:18.029Z,31.98
2023-11-30T10:41:54.494Z,28.45
2023-11-30T10:44:29.786Z,30.00
2023-11-30T10:46:59.696Z,31.48
2023-11-30T10:49:30.807Z,30.42
2023-11-30T10:52:03.182Z,32.90
2023-11-30T10:54:35.845Z,30.42
2023-11-30T10:57:05.488Z,33.15
2023-11-30T10:59:34.397Z,37.35
2023-11-30T11:02:07.198Z,37.10
2023-11-30T11:04:42.072Z,34.03
2023-11-30T11:07:14.910Z,34.60
2023-11-30T11:09:44.304Z,34.67
2023-11-30T11:12:38.805Z,35.08
2023-11-30T11:15:13.253Z,32.45
2023-11-30T11:17:49.210Z,32.40
2023-11-30T11:20:26.497Z,34.13
2023-11-30T11:22:59.499Z,32.17
2023-11-30T11:25:27.927Z,32.25
2023-11-30T11:27:57.232Z,33.78
2023-11-30T11:30:28.107Z,32.92
2023-11-30T11:32:59.892Z,34.10
2023-11-30T11:35:29.792Z,32.70
2023-11-30T11:37:59.324Z,33.17
2023-11-30T11:40:28.425Z,31.33
2023-11-30T11:42:56.728Z,33.75
2023-11-30T11:45:25.046Z,30.23
2023-11-30T11:47:53.619Z,30.80
2023-11-30T11:50:21.723Z,31.10
2023-11-30T11:52:51.888Z,31.38
2023-11-30T11:55:24.859Z,30.77
2023-11-30T11:57:54.166Z,31.02
2023-11-30T12:00:23.211Z,30.95
2023-11-30T12:02:52.012Z,31.88
2023-11-30T12:05:26.210Z,32.30
2023-11-30T12:07:58.274Z,29.90
2023-11-30T12:10:28.698Z,30.77
2023-11-30T12:12:58.470Z,34.78
2023-11-30T12:15:26.580Z,36.22
2023-11-30T12:17:55.138Z,36.30
2023-11-30T12:20:23.857Z,38.58
2023-11-30T12:22:52.244Z,40.17
2023-11-30T12:25:22.361Z,36.95
2023-11-30T12:27:51.312Z,37.42
2023-11-30T12:30:20.651Z,39.08
2023-11-30T12:32:50.087Z,39.25
2023-11-30T12:35:18.514Z,41.38
2023-11-30T12:37:46.936Z,40.17
2023-11-30T12:40:15.811Z,36.38
2023-11-30T12:42:45.948Z,38.53
2023-11-30T12:45:14.626Z,38.33
2023-11-30T12:47:42.977Z,37.35
2023-11-30T12:50:12.265Z,36.58
2023-11-30T12:52:40.719Z,34.25
2023-11-30T12:55:10.562Z,35.22
2023-11-30T12:57:40.695Z,35.83
2023-11-30T13:00:16.793Z,36.25
2023-11-30T13:02:48.730Z,33.55
2023-11-30T13:05:17.726Z,35.83
2023-11-30T13:07:45.988Z,32.88
2023-11-30T13:10:14.316Z,33.45
2023-11-30T13:12:43.449Z,34.83
2023-11-30T13:15:13.927Z,34.25
2023-11-30T13:17:42.663Z,32.83
2023-11-30T13:20:14.482Z,34.15
2023-11-30T13:22:45.793Z,36.65
2023-11-30T13:25:15.796Z,36.30
2023-11-30T13:27:47.671Z,34.50
2023-11-30T13:30:19.302Z,39.92
2023-11-30T13:32:48.298Z,41.15
2023-11-30T13:35:17.069Z,39.92
2023-11-30T13:37:45.329Z,40.00
2023-11-30T13:40:14.044Z,35.70
2023-11-30T13:42:42.427Z,32.88
2023-11-30T13:45:11.250Z,32.10
2023-11-30T13:47:48.543Z,29.63
2023-11-30T13:50:26.229Z,27.98
2023-11-30T13:53:00.745Z,27.95
2023-11-30T13:55:30.157Z,26.98
2023-11-30T13:57:58.572Z,26.85
2023-11-30T14:00:26.996Z,25.48
2023-11-30T14:02:56.983Z,25.40
2023-11-30T14:05:25.313Z,26.75
2023-11-30T14:07:53.609Z,25.65
2023-11-30T14:10:21.760Z,27.05
2023-11-30T14:12:49.917Z,26.98
2023-11-30T14:15:18.421Z,37.33
2023-11-30T14:17:46.660Z,28.58
2023-11-30T14:20:16.314Z,33.72
2023-11-30T14:22:44.669Z,30.00
2023-11-30T14:25:13.726Z,27.10
2023-11-30T14:27:42.139Z,30.05
2023-11-30T14:30:11.255Z,39.55
2023-11-30T14:32:41.365Z,31.50
2023-11-30T14:35:12.978Z,30.85
2023-11-30T14:37:42.891Z,31.00
2023-11-30T14:40:13.751Z,32.35
2023-11-30T14:42:42.033Z,33.95
2023-11-30T14:45:13.325Z,31.30
2023-11-30T14:47:43.077Z,29.75
2023-11-30T14:50:12.051Z,34.15
2023-11-30T14:52:40.903Z,35.05
2023-11-30T14:55:10.550Z,32.92
2023-11-30T14:57:39.006Z,32.03
2023-11-30T15:00:12.623Z,35.72
2023-11-30T15:02:42.517Z,35.00
2023-11-30T15:05:14.919Z,34.22
2023-11-30T15:07:44.089Z,34.45
2023-11-30T15:10:14.958Z,33.90
2023-11-30T15:12:43.220Z,40.30
2023-11-30T15:15:15.589Z,36.72
2023-11-30T15:17:46.339Z,37.35
2023-11-30T15:20:15.678Z,37.88
2023-11-30T15:22:45.023Z,40.08
2023-11-30T15:25:19.955Z,40.90
2023-11-30T15:27:49.673Z,40.30
2023-11-30T15:30:18.782Z,49.08
2023-11-30T15:32:47.201Z,45.10
2023-11-30T15:35:16.412Z,43.78
2023-11-30T15:37:49.660Z,46.17
2023-11-30T15:40:22.304Z,47.70
2023-11-30T15:42:51.946Z,48.35
2023-11-30T15:45:22.528Z,51.47
2023-11-30T15:47:51.147Z,63.88
2023-11-30T15:50:19.446Z,54.30
2023-11-30T15:52:47.689Z,56.53
2023-11-30T15:55:16.325Z,56.72
2023-11-30T15:57:46.281Z,52.72
2023-11-30T16:00:15.534Z,54.85
2023-11-30T16:02:45.148Z,51.45
2023-11-30T16:05:14.810Z,56.30
2023-11-30T16:07:43.753Z,55.13
2023-11-30T16:10:12.918Z,58.83
2023-11-30T16:12:41.150Z,57.80
2023-11-30T16:15:13.070Z,57.58
2023-11-30T16:17:41.474Z,58.33
2023-11-30T16:20:12.583Z,53.45
2023-11-30T16:22:41.301Z,60.80
2023-11-30T16:25:12.283Z,59.78
2023-11-30T16:27:42.742Z,61.45
2023-11-30T16:30:13.283Z,59.60
2023-11-30T16:32:41.675Z,59.88
2023-11-30T16:35:10.428Z,54.55
2023-11-30T16:37:39.046Z,52.47
2023-11-30T16:40:09.045Z,52.45
2023-11-30T16:42:37.489Z,57.92
2023-11-30T16:45:07.276Z,67.90
2023-11-30T16:47:39.314Z,66.45
2023-11-30T16:50:09.706Z,94.15
2023-11-30T16:52:38.671Z,81.10
2023-11-30T16:55:07.615Z,67.95
2023-11-30T16:57:35.652Z,75.78
2023-11-30T17:00:05.961Z,67.15
2023-11-30T17:02:34.550Z,60.60
2023-11-30T17:05:04.351Z,59.53
2023-11-30T17:07:32.354Z,56.20
2023-11-30T17:10:00.580Z,58.78
2023-11-30T17:12:28.776Z,62.55
2023-11-30T17:14:56.897Z,82.45
2023-11-30T17:17:24.912Z,74.47
2023-11-30T17:19:52.983Z,74.55
2023-11-30T17:22:22.510Z,73.30
2023-11-30T17:24:50.585Z,70.30
2023-11-30T17:27:18.832Z,63.67
2023-11-30T17:29:46.997Z,60.95
2023-11-30T17:32:15.513Z,72.13
2023-11-30T17:34:44.506Z,76.93
2023-11-30T17:37:14.189Z,68.60
2023-11-30T17:39:43.734Z,68.05
2023-11-30T17:42:11.893Z,63.58
2023-11-30T17:44:39.925Z,71.00
2023-11-30T17:47:08.708Z,65.15
2023-11-30T17:49:37.343Z,69.30
2023-11-30T17:52:05.939Z,66.72
2023-11-30T17:54:34.078Z,64.40
2023-11-30T17:57:03.673Z,61.90
2023-11-30T17:59:31.941Z,59.42
2023-11-30T18:02:00.256Z,60.38
2023-11-30T18:04:28.451Z,62.55
2023-11-30T18:06:56.671Z,68.28
2023-11-30T18:09:27.626Z,66.75
2023-11-30T18:11:58.588Z,65.18
2023-11-30T18:14:32.610Z,65.88
2023-11-30T18:17:00.883Z,63.95
2023-11-30T18:19:29.200Z,67.10
2023-11-30T18:21:58.091Z,79.75
2023-11-30T18:24:30.948Z,77.25
2023-11-30T18:26:59.812Z,85.63
2023-11-30T18:29:29.565Z,104.15
2023-11-30T18:31:58.073Z,93.78
2023-11-30T18:34:26.454Z,79.43
2023-11-30T18:36:54.639Z,87.90
2023-11-30T18:39:24.207Z,92.60
2023-11-30T18:41:56.037Z,115.78
2023-11-30T18:44:24.176Z,108.90
2023-11-30T18:46:53.664Z,108.50
2023-11-30T18:49:21.908Z,106.63
2023-11-30T18:51:50.106Z,108.65
2023-11-30T18:54:18.894Z,115.03
2023-11-30T18:56:48.570Z,127.10
2023-11-30T18:59:16.639Z,110.85
2023-11-30T19:01:45.153Z,117.05
2023-11-30T19:04:14.838Z,130.63
2023-11-30T19:06:42.977Z,124.43
2023-11-30T19:09:11.244Z,110.70
2023-11-30T19:11:39.438Z,115.28
2023-11-30T19:14:07.706Z,128.43
2023-11-30T19:16:37.012Z,119.07
2023-11-30T19:19:05.173Z,116.25
2023-11-30T19:21:34.721Z,111.18
2023-11-30T19:24:02.948Z,115.05
2023-11-30T19:26:31.031Z,125.10
2023-11-30T19:28:59.025Z,119.60
2023-11-30T19:31:27.235Z,129.90
2023-11-30T19:33:55.335Z,126.50
2023-11-30T19:36:23.467Z,116.22
2023-11-30T19:38:52.981Z,128.63
2023-11-30T19:41:20.982Z,131.23
2023-11-30T19:43:49.070Z,136.38
2023-11-30T19:46:17.899Z,127.45
2023-11-30T19:48:46.223Z,134.98
2023-11-30T19:51:17.690Z,135.70
2023-11-30T19:53:45.831Z,128.68
2023-11-30T19:56:18.705Z,119.85
2023-11-30T19:58:47.055Z,130.50
2023-11-30T20:01:21.414Z,128.52
2023-11-30T20:03:49.756Z,124.55
2023-11-30T20:06:18.279Z,126.65
2023-11-30T20:08:46.431Z,122.60
2023-11-30T20:11:15.096Z,107.60
2023-11-30T20:13:44.541Z,110.47
2023-11-30T20:16:13.100Z,103.53
2023-11-30T20:18:42.086Z,126.22
2023-11-30T20:21:18.708Z,118.60
2023-11-30T20:23:46.817Z,114.47
2023-11-30T20:26:15.219Z,102.97
2023-11-30T20:28:44.591Z,111.22
2023-11-30T20:31:13.992Z,113.57
2023-11-30T20:33:42.230Z,105.55
2023-11-30T20:36:10.926Z,98.65
2023-11-30T20:38:40.708Z,100.63
2023-11-30T20:41:11.900Z,85.20
2023-11-30T20:43:40.137Z,90.30
2023-11-30T20:46:09.841Z,92.63
2023-11-30T20:48:38.066Z,93.25
2023-11-30T20:51:06.836Z,87.80
2023-11-30T20:53:34.964Z,90.20
2023-11-30T20:56:03.948Z,88.32
2023-11-30T20:58:32.074Z,83.15
2023-11-30T21:01:00.861Z,107.47
2023-11-30T21:03:30.940Z,88.72
2023-11-30T21:06:01.059Z,91.00
2023-11-30T21:08:31.150Z,88.55
2023-11-30T21:10:59.279Z,74.70
2023-11-30T21:13:27.337Z,95.60
2023-11-30T21:15:55.552Z,92.40
2023-11-30T21:18:24.124Z,93.82
2023-11-30T21:20:53.713Z,89.57
2023-11-30T21:23:21.955Z,85.05
2023-11-30T21:25:50.054Z,84.57
2023-11-30T21:28:18.050Z,76.60
2023-11-30T21:30:46.081Z,79.80
2023-11-30T21:33:14.404Z,68.50
2023-11-30T21:35:42.618Z,71.13
2023-11-30T21:38:12.197Z,72.97
2023-11-30T21:40:40.346Z,76.90
2023-11-30T21:43:08.493Z,75.25
2023-11-30T21:45:36.625Z,76.95
2023-11-30T21:48:04.986Z,69.28
2023-11-30T21:50:33.415Z,61.00
2023-11-30T21:53:01.600Z,51.92
2023-11-30T21:55:31.625Z,54.78
2023-11-30T21:57:59.757Z,63.42
2023-11-30T22:00:28.108Z,72.38
2023-11-30T22:02:56.356Z,65.72
2023-11-30T22:05:30.726Z,70.30
2023-11-30T22:08:04.394Z,65.80
2023-11-30T22:10:33.906Z,57.50
2023-11-30T22:13:02.301Z,60.05
2023-11-30T22:15:30.514Z,55.72
2023-11-30T22:17:59.856Z,53.55
2023-11-30T22:20:28.722Z,48.08
2023-11-30T22:22:56.864Z,42.80
2023-11-30T22:25:25.191Z,46.45
2023-11-30T22:27:55.343Z,45.35
2023-11-30T22:30:23.511Z,43.72
2023-11-30T22:32:52.941Z,43.88
2023-11-30T22:35:21.111Z,41.13
2023-11-30T22:37:49.479Z,40.75
2023-11-30T22:40:17.783Z,38.00
2023-11-30T22:42:45.974Z,36.30
2023-11-30T22:45:15.708Z,34.45
2023-11-30T22:47:43.801Z,33.65
2023-11-30T22:50:11.928Z,34.67
2023-11-30T22:52:40.133Z,35.63
2023-11-30T22:55:09.771Z,36.42
2023-11-30T22:57:38.203Z,34.50
2023-11-30T23:00:09.102Z,37.90
2023-11-30T23:02:38.729Z,33.50
2023-11-30T23:05:07.887Z,36.60
2023-11-30T23:07:35.910Z,39.00
2023-11-30T23:10:04.058Z,37.50
2023-11-30T23:12:32.186Z,33.85
2023-11-30T23:15:00.310Z,34.88
2023-11-30T23:17:28.393Z,34.80
2023-11-30T23:19:57.829Z,30.85
2023-11-30T23:22:25.908Z,33.33
2023-11-30T23:24:53.994Z,36.63
2023-11-30T23:27:22.414Z,32.92
2023-11-30T23:29:50.514Z,34.33
2023-11-30T23:32:18.620Z,35.60
2023-11-30T23:34:46.848Z,35.75
2023-11-30T23:37:17.458Z,38.42
2023-11-30T23:39:45.625Z,33.72
2023-11-30T23:42:13.863Z,34.08
2023-11-30T23:44:42.776Z,37.60
2023-11-30T23:47:10.928Z,40.22
2023-11-30T23:49:39.501Z,35.65
2023-11-30T23:52:08.200Z,37.75
2023-11-30T23:54:37.735Z,35.58
2023-11-30T23:57:06.411Z,34.67
2023-11-30T23:59:34.978Z,35.25
